Hamilton, Nebraska
Current Conditions -  °F | °C
As of 1:15 AM on Sunday 26 Oct 2014 (Local Time) from KHJH Reporting Station
Clear Clear  
Wind Chill: 57°   Ceiling: Unl
Heat Index: 57°   Visibility: 10mi
Dew Point: 46°   Wind: 6mph
Humidity: 65%   Direction: 90°E
Pressure: 29.93"   Gusts: NA
Location:  40.3936°N, 97.5387°W
Report Text: KHJH 260615Z AUTO 09005KT 10SM CLR 14/08 A2993 RMK AO2 T01390075
Loading
Personal Weather Stations






























Interactive Weather Map New forecast layout! Learn more

10-Day Weather Forecast

Advertisements
Track Severe Weather on mobile